Time;durP1;ratioP1;P1;durP2;ratioP2;P2;SDS_P1;SDS_P2;PMS_P1;PMS_P2;Temp;Humidity;BMP_temperature;BMP_pressure;BME280_temperature;BME280_humidity;BME280_pressure;Samples;Min_cycle;Max_cycle;Signal;HPM_P1;HPM_P2
2022/05/20 00:01:07;;;;;;;9.00;4.55;;;14.40;99.90;;;;;;5113503;28;20131;-63
2022/05/20 00:03:38;;;;;;;6.68;4.38;;;14.40;99.90;;;;;;5112352;28;20565;-63
2022/05/20 00:06:05;;;;;;;11.45;4.35;;;14.50;99.90;;;;;;5095240;28;20051;-62
2022/05/20 00:08:31;;;;;;;9.23;4.57;;;14.50;99.90;;;;;;5112789;28;20048;-61
2022/05/20 00:10:57;;;;;;;8.65;4.82;;;14.50;99.90;;;;;;5113425;28;20132;-61
2022/05/20 00:13:25;;;;;;;9.77;4.63;;;14.40;99.90;;;;;;5112959;28;20047;-66
2022/05/20 00:15:52;;;;;;;6.47;4.63;;;14.40;99.90;;;;;;5094987;28;20051;-62
2022/05/20 00:18:17;;;;;;;11.52;5.20;;;14.40;99.90;;;;;;5113077;28;20600;-62
2022/05/20 00:20:43;;;;;;;7.43;5.07;;;14.60;99.90;;;;;;5112603;28;20135;-61
2022/05/20 00:23:09;;;;;;;9.82;5.72;;;14.40;99.90;;;;;;5094676;28;20092;-64
2022/05/20 00:25:47;;;;;;;9.48;4.97;;;14.40;99.90;;;;;;5111449;28;20088;-60
2022/05/20 00:28:28;;;;;;;8.55;5.75;;;14.40;99.90;;;;;;5077773;28;20089;-61
2022/05/20 00:31:04;;;;;;;9.27;5.60;;;14.40;99.90;;;;;;5112676;28;20047;-60
2022/05/20 00:33:31;;;;;;;11.20;6.00;;;14.40;99.90;;;;;;5112562;28;20084;-61
2022/05/20 00:35:57;;;;;;;8.68;5.82;;;14.40;99.90;;;;;;5094201;28;20126;-61
2022/05/20 00:38:23;;;;;;;9.93;5.82;;;14.40;99.90;;;;;;5077418;28;20047;-63
2022/05/20 00:40:51;;;;;;;9.43;5.72;;;14.30;99.90;;;;;;5111247;28;20048;-61
2022/05/20 00:43:29;;;;;;;8.10;6.32;;;14.40;99.90;;;;;;5112464;28;20058;-62
2022/05/20 00:45:58;;;;;;;10.95;5.78;;;14.30;99.90;;;;;;5112425;28;20485;-62
2022/05/20 00:48:24;;;;;;;10.00;6.43;;;14.30;99.90;;;;;;5112547;28;20047;-62
2022/05/20 00:51:19;;;;;;;13.10;5.95;;;14.20;99.90;;;;;;5111920;28;20056;-62
2022/05/20 00:53:56;;;;;;;8.90;6.32;;;14.20;99.90;;;;;;5112034;28;20051;-61
2022/05/20 00:56:28;;;;;;;9.43;6.65;;;14.10;99.90;;;;;;5094118;28;20051;-62
2022/05/20 00:58:55;;;;;;;9.48;6.43;;;14.10;99.90;;;;;;5111967;28;20046;-62
2022/05/20 01:01:21;;;;;;;9.45;7.15;;;14.00;99.90;;;;;;5094126;28;20058;-60
2022/05/20 01:03:49;;;;;;;9.38;7.18;;;14.00;99.90;;;;;;5111785;28;20342;-61
2022/05/20 01:06:15;;;;;;;10.77;7.30;;;13.90;99.90;;;;;;5094183;28;20063;-60
2022/05/20 01:08:41;;;;;;;10.15;7.50;;;13.90;99.90;;;;;;5111814;28;20392;-60
2022/05/20 01:11:07;;;;;;;15.52;9.07;;;13.90;99.90;;;;;;5093933;28;20051;-60
2022/05/20 01:13:33;;;;;;;15.65;8.93;;;13.80;99.90;;;;;;5111037;28;20146;-66
2022/05/20 01:16:02;;;;;;;11.75;9.05;;;13.80;99.90;;;;;;5112067;28;20555;-64
2022/05/20 01:18:32;;;;;;;14.05;9.38;;;13.80;99.90;;;;;;5094322;28;20127;-64
2022/05/20 01:20:57;;;;;;;14.02;9.30;;;13.80;99.90;;;;;;5111929;28;20047;-64
2022/05/20 01:23:27;;;;;;;12.15;10.35;;;13.70;99.90;;;;;;5077161;28;20046;-64
2022/05/20 01:25:55;;;;;;;15.00;10.95;;;13.70;99.90;;;;;;5111372;28;20266;-64
2022/05/20 01:28:23;;;;;;;14.68;10.93;;;13.70;99.90;;;;;;5111545;28;20040;-64
2022/05/20 01:30:55;;;;;;;15.13;11.32;;;13.60;99.90;;;;;;5076827;28;20043;-63
2022/05/20 01:33:31;;;;;;;13.75;11.07;;;13.60;99.90;;;;;;5111930;28;20039;-63
2022/05/20 01:35:58;;;;;;;20.38;11.80;;;13.50;99.90;;;;;;5111282;28;20044;-65
2022/05/20 01:38:24;;;;;;;17.67;11.13;;;13.50;99.90;;;;;;5093546;28;20071;-64
2022/05/20 01:40:56;;;;;;;15.30;12.07;;;13.50;99.90;;;;;;5111602;28;20434;-64
2022/05/20 01:43:49;;;;;;;15.93;12.35;;;13.40;99.90;;;;;;5111673;28;20408;-63
2022/05/20 01:46:27;;;;;;;17.45;12.65;;;13.40;99.90;;;;;;5111537;28;20043;-64
2022/05/20 01:49:11;;;;;;;17.65;12.70;;;13.30;99.90;;;;;;5111497;28;20357;-64
2022/05/20 01:52:02;;;;;;;15.10;12.73;;;13.40;99.90;;;;;;5111647;28;20442;-67
2022/05/20 01:54:48;;;;;;;15.63;11.93;;;13.30;99.90;;;;;;5093148;28;20451;-64
2022/05/20 01:57:27;;;;;;;18.90;12.50;;;13.30;99.90;;;;;;5111783;28;20035;-63
2022/05/20 02:00:20;;;;;;;17.05;12.50;;;13.30;99.90;;;;;;5111517;28;20131;-65
2022/05/20 02:03:17;;;;;;;15.57;12.30;;;13.30;99.90;;;;;;5089273;28;20134;-64
2022/05/20 02:06:03;;;;;;;14.38;11.38;;;13.30;99.90;;;;;;5064482;28;20100;-63
2022/05/20 02:08:43;;;;;;;16.85;11.48;;;13.30;99.90;;;;;;5111616;28;20050;-64
2022/05/20 02:11:22;;;;;;;17.65;11.80;;;13.30;99.90;;;;;;5111695;28;20128;-64
2022/05/20 02:14:13;;;;;;;14.27;11.50;;;13.30;99.90;;;;;;5110815;28;20496;-64
2022/05/20 02:16:42;;;;;;;15.88;11.25;;;13.30;99.90;;;;;;5092594;28;20436;-67
2022/05/20 02:19:33;;;;;;;14.90;11.95;;;13.20;99.90;;;;;;5111506;28;20047;-63
2022/05/20 02:22:02;;;;;;;12.82;11.27;;;13.20;99.90;;;;;;5093173;28;20040;-64
2022/05/20 02:24:33;;;;;;;16.95;12.00;;;13.20;99.90;;;;;;5111400;28;20185;-64
2022/05/20 02:27:03;;;;;;;15.98;11.88;;;13.10;99.90;;;;;;5111205;28;20040;-64
2022/05/20 02:29:45;;;;;;;16.27;11.98;;;13.10;99.90;;;;;;5111626;28;20040;-64
2022/05/20 02:32:19;;;;;;;16.60;12.52;;;13.10;99.90;;;;;;5076751;28;20059;-64
2022/05/20 02:34:45;;;;;;;17.80;12.25;;;13.10;99.90;;;;;;5111073;28;20048;-65
2022/05/20 02:37:21;;;;;;;16.73;11.82;;;13.10;99.90;;;;;;5093471;28;20119;-64
2022/05/20 02:39:47;;;;;;;14.85;12.27;;;13.10;99.90;;;;;;5110952;28;20054;-64
2022/05/20 02:42:13;;;;;;;16.27;12.18;;;13.10;99.90;;;;;;5093231;28;20186;-64
2022/05/20 02:44:39;;;;;;;18.50;12.43;;;13.20;99.90;;;;;;5092863;28;20537;-63
2022/05/20 02:47:05;;;;;;;19.23;11.95;;;13.10;99.90;;;;;;5092764;28;20043;-64
2022/05/20 02:49:31;;;;;;;17.88;11.70;;;13.10;99.90;;;;;;5096923;28;20040;-64
2022/05/20 02:51:56;;;;;;;17.08;11.88;;;13.10;99.90;;;;;;5114593;28;20207;-65
2022/05/20 02:54:22;;;;;;;17.13;12.13;;;13.10;99.90;;;;;;5114225;28;20058;-64
2022/05/20 02:56:48;;;;;;;19.58;11.77;;;13.10;99.90;;;;;;5095928;28;20117;-64
2022/05/20 03:04:47;;;;;;;15.90;11.02;;;13.10;99.90;;;;;;5096064;28;20051;-66
2022/05/20 03:07:15;;;;;;;14.00;11.32;;;13.10;99.90;;;;;;5096210;28;20052;-64
2022/05/20 03:09:41;;;;;;;14.93;11.38;;;13.10;99.90;;;;;;5114591;28;20051;-64
2022/05/20 03:12:07;;;;;;;19.45;11.32;;;13.10;99.90;;;;;;5114195;28;20587;-64
2022/05/20 03:14:33;;;;;;;18.25;11.55;;;13.10;99.90;;;;;;5096362;28;20040;-64
2022/05/20 03:17:00;;;;;;;15.73;11.10;;;13.10;99.90;;;;;;5114011;28;20377;-63
2022/05/20 03:19:30;;;;;;;15.30;10.63;;;13.10;99.90;;;;;;5096234;28;20579;-64
2022/05/20 03:21:56;;;;;;;15.80;10.85;;;13.10;99.90;;;;;;5079615;28;20138;-64
2022/05/20 03:24:22;;;;;;;18.35;10.55;;;13.00;99.90;;;;;;5114158;28;20050;-64
2022/05/20 03:26:48;;;;;;;19.92;11.90;;;13.00;99.90;;;;;;5114184;28;20044;-63
2022/05/20 03:29:13;;;;;;;18.48;12.40;;;13.00;99.90;;;;;;5095371;28;20127;-64
2022/05/20 03:31:40;;;;;;;16.67;11.68;;;13.00;99.90;;;;;;5114144;28;20119;-64
2022/05/20 03:34:06;;;;;;;15.75;11.30;;;13.00;99.90;;;;;;5095637;28;20051;-64
2022/05/20 03:36:41;;;;;;;17.25;11.23;;;13.00;99.90;;;;;;5096095;28;20055;-64
2022/05/20 03:39:09;;;;;;;13.73;11.27;;;12.90;99.90;;;;;;5095551;28;20493;-64
2022/05/20 03:41:37;;;;;;;18.60;12.07;;;12.90;99.90;;;;;;5095698;28;20081;-64
2022/05/20 03:44:07;;;;;;;16.25;11.93;;;12.90;99.90;;;;;;5113572;28;20047;-64
2022/05/20 03:46:33;;;;;;;20.50;12.05;;;12.90;99.90;;;;;;5095702;28;20472;-64
2022/05/20 03:48:59;;;;;;;18.90;12.60;;;12.90;99.90;;;;;;5113363;28;20054;-66
2022/05/20 03:51:25;;;;;;;17.58;12.60;;;12.90;99.90;;;;;;5113625;28;20083;-63
2022/05/20 03:53:51;;;;;;;19.33;12.93;;;12.80;99.90;;;;;;5113611;28;20487;-64
2022/05/20 03:56:17;;;;;;;15.55;12.30;;;12.90;99.90;;;;;;5113153;28;20068;-64
2022/05/20 03:58:42;;;;;;;18.27;12.55;;;12.90;99.90;;;;;;5077720;28;20055;-63
2022/05/20 04:03:55;;;;;;;16.80;12.73;;;12.90;99.90;;;;;;5094938;28;20557;-67
2022/05/20 04:06:21;;;;;;;18.67;12.45;;;12.90;99.90;;;;;;5113710;28;20086;-64
2022/05/20 04:08:46;;;;;;;19.98;13.05;;;12.90;99.90;;;;;;5095300;28;20401;-64
2022/05/20 04:11:13;;;;;;;18.40;14.10;;;12.90;99.90;;;;;;5112550;28;20047;-64
2022/05/20 04:13:44;;;;;;;21.20;14.25;;;12.90;99.90;;;;;;5078387;28;20416;-63
2022/05/20 04:16:12;;;;;;;19.70;13.48;;;13.00;99.90;;;;;;5112623;28;20140;-66
2022/05/20 04:18:38;;;;;;;18.83;13.25;;;13.00;99.90;;;;;;5095078;28;20088;-64
2022/05/20 04:21:05;;;;;;;18.23;13.52;;;13.00;99.90;;;;;;5112937;28;20044;-64
2022/05/20 04:23:31;;;;;;;19.85;14.43;;;13.10;99.90;;;;;;5112779;28;20039;-64
2022/05/20 04:25:57;;;;;;;19.30;13.77;;;13.10;99.90;;;;;;5112639;28;20040;-69
2022/05/20 04:28:23;;;;;;;18.48;13.48;;;13.20;99.90;;;;;;5112845;28;20100;-63
2022/05/20 04:31:00;;;;;;;17.92;13.13;;;13.20;99.90;;;;;;5112630;28;20504;-64
2022/05/20 04:33:26;;;;;;;20.40;13.82;;;13.20;99.90;;;;;;5094665;28;20130;-63
2022/05/20 04:35:52;;;;;;;19.38;12.95;;;13.20;99.90;;;;;;5112230;28;20047;-64
2022/05/20 04:38:18;;;;;;;18.25;13.70;;;13.30;99.90;;;;;;5094278;28;20368;-63
2022/05/20 04:40:45;;;;;;;21.25;13.93;;;13.30;99.90;;;;;;5094510;28;20044;-64
2022/05/20 04:48:39;;;;;;;15.73;13.15;;;13.40;99.90;;;;;;5112832;28;20052;-65
2022/05/20 04:51:04;;;;;;;17.92;12.80;;;13.60;99.90;;;;;;5112161;28;20048;-64
2022/05/20 04:56:14;;;;;;;14.27;11.50;;;14.30;99.90;;;;;;5112179;28;20047;-63
2022/05/20 04:58:40;;;;;;;14.10;10.63;;;15.00;99.90;;;;;;5094295;28;20511;-64
2022/05/20 05:01:06;;;;;;;15.32;10.35;;;15.50;99.90;;;;;;5093647;28;20081;-64
2022/05/20 05:03:31;;;;;;;14.35;10.32;;;16.00;99.90;;;;;;5112132;28;20086;-64
2022/05/20 05:05:57;;;;;;;17.05;10.50;;;16.50;99.90;;;;;;5112118;28;20047;-65
2022/05/20 05:08:23;;;;;;;12.07;8.85;;;16.80;99.90;;;;;;5093686;28;20044;-64
2022/05/20 05:10:49;;;;;;;13.40;9.48;;;17.20;99.90;;;;;;5111899;28;20108;-64
2022/05/20 05:13:15;;;;;;;12.38;8.50;;;17.60;99.90;;;;;;5111782;28;20094;-63
2022/05/20 05:15:44;;;;;;;12.82;8.30;;;18.10;99.90;;;;;;5093715;28;20039;-64
2022/05/20 05:18:12;;;;;;;14.23;7.38;;;18.60;99.90;;;;;;5092778;28;20501;-65
2022/05/20 05:20:44;;;;;;;13.52;8.23;;;19.10;99.90;;;;;;5111668;28;20104;-64
2022/05/20 05:23:10;;;;;;;11.23;7.47;;;19.70;99.90;;;;;;5093403;28;20059;-64
2022/05/20 05:25:36;;;;;;;10.95;6.95;;;20.10;99.90;;;;;;5111880;28;20139;-65
2022/05/20 05:28:03;;;;;;;13.18;7.95;;;20.50;99.90;;;;;;5077272;28;20043;-63
2022/05/20 05:30:29;;;;;;;8.85;6.55;;;20.90;99.90;;;;;;5111499;28;20392;-64
2022/05/20 05:32:55;;;;;;;10.48;6.72;;;21.30;99.90;;;;;;5093867;28;20043;-64
2022/05/20 05:35:23;;;;;;;12.48;6.85;;;21.60;99.90;;;;;;5111378;28;20392;-65
2022/05/20 05:37:50;;;;;;;13.13;7.03;;;22.00;99.90;;;;;;5111487;28;20126;-64
2022/05/20 05:40:21;;;;;;;9.20;6.40;;;22.10;99.90;;;;;;5111356;28;20047;-64
2022/05/20 05:42:47;;;;;;;11.60;6.45;;;22.30;99.90;;;;;;5093473;28;20074;-64
2022/05/20 05:45:17;;;;;;;10.15;6.57;;;22.30;99.90;;;;;;5092644;28;20080;-65
2022/05/20 05:47:45;;;;;;;10.98;6.35;;;22.10;99.90;;;;;;5111339;28;20477;-64
2022/05/20 05:50:11;;;;;;;11.45;6.50;;;22.30;99.90;;;;;;5111233;28;20043;-64
2022/05/20 05:52:37;;;;;;;8.43;6.10;;;22.50;99.90;;;;;;5111599;28;20394;-64
2022/05/20 05:55:03;;;;;;;9.23;6.50;;;22.60;99.90;;;;;;5092981;28;20434;-63
2022/05/20 05:57:29;;;;;;;9.65;6.25;;;22.50;99.90;;;;;;5110749;28;20184;-64
2022/05/20 05:59:55;;;;;;;12.55;6.72;;;22.40;99.90;;;;;;5058700;28;20130;-64
2022/05/20 06:02:21;;;;;;;11.93;6.85;;;21.90;99.90;;;;;;5110743;28;20047;-65
2022/05/20 06:04:48;;;;;;;10.80;5.93;;;21.40;99.90;;;;;;5076290;28;20054;-65
2022/05/20 06:07:14;;;;;;;8.82;6.45;;;21.30;99.90;;;;;;5110989;28;20047;-64
2022/05/20 06:09:40;;;;;;;13.52;6.88;;;21.80;99.90;;;;;;5093524;28;20484;-63
2022/05/20 06:12:06;;;;;;;11.10;6.50;;;21.70;99.90;;;;;;5111495;28;20079;-64
2022/05/20 06:14:32;;;;;;;11.18;6.60;;;21.40;99.90;;;;;;5110536;28;20039;-64
2022/05/20 06:16:58;;;;;;;8.23;5.45;;;21.00;99.90;;;;;;5110918;28;20050;-64
2022/05/20 06:19:24;;;;;;;11.43;7.25;;;20.50;99.90;;;;;;5110863;28;20435;-64
2022/05/20 06:21:51;;;;;;;10.05;6.10;;;20.30;99.90;;;;;;5111161;28;20047;-65
2022/05/20 06:24:17;;;;;;;11.52;6.45;;;20.30;99.90;;;;;;5114453;28;20040;-66
2022/05/20 06:26:43;;;;;;;10.48;6.50;;;20.20;99.90;;;;;;5097304;28;20066;-65
2022/05/20 06:29:10;;;;;;;8.55;5.50;;;20.00;99.90;;;;;;5080339;28;20397;-65
2022/05/20 06:31:36;;;;;;;10.90;5.28;;;19.90;99.90;;;;;;5096363;28;20528;-64
2022/05/20 06:34:02;;;;;;;8.20;5.03;;;20.60;99.90;;;;;;5115211;28;20039;-66
2022/05/20 06:41:58;;;;;;;9.70;5.45;;;23.10;99.90;;;;;;5096046;28;20525;-64
2022/05/20 06:44:24;;;;;;;7.35;5.43;;;22.80;99.80;;;;;;5095887;28;20481;-64
2022/05/20 06:46:50;;;;;;;9.70;5.35;;;22.30;99.90;;;;;;5114017;28;20531;-65
2022/05/20 06:49:16;;;;;;;9.30;5.72;;;21.50;99.90;;;;;;5113708;28;20101;-66
2022/05/20 06:51:42;;;;;;;9.65;4.13;;;20.70;99.90;;;;;;5114361;28;20446;-65
2022/05/20 06:54:11;;;;;;;8.27;4.13;;;20.30;99.90;;;;;;5096050;28;20047;-65
2022/05/20 06:56:38;;;;;;;10.63;4.80;;;20.20;99.90;;;;;;5095624;28;20043;-64
2022/05/20 06:59:06;;;;;;;9.52;5.47;;;20.00;99.90;;;;;;5114006;28;20068;-64
2022/05/20 07:01:32;;;;;;;7.93;4.95;;;19.80;99.90;;;;;;5113161;28;20471;-65
2022/05/20 07:03:58;;;;;;;9.02;5.00;;;19.80;99.90;;;;;;5113448;28;20130;-65
2022/05/20 07:06:25;;;;;;;8.43;4.28;;;19.80;99.90;;;;;;5113386;28;20051;-63
2022/05/20 07:08:51;;;;;;;8.43;4.35;;;19.80;99.90;;;;;;5114307;28;20051;-65
2022/05/20 07:11:22;;;;;;;7.22;4.10;;;20.30;99.90;;;;;;5113839;28;20101;-63
2022/05/20 07:13:52;;;;;;;9.93;4.68;;;21.00;99.90;;;;;;5114282;28;20048;-64
2022/05/20 07:16:18;;;;;;;8.98;4.47;;;21.30;99.90;;;;;;5096174;28;20523;-64
2022/05/20 07:18:44;;;;;;;8.40;4.82;;;21.50;99.90;;;;;;5114223;28;20482;-64
2022/05/20 07:21:10;;;;;;;8.35;4.75;;;21.30;99.90;;;;;;5114306;28;20496;-64
2022/05/20 07:23:36;;;;;;;7.38;3.75;;;21.20;99.90;;;;;;5113976;28;20046;-64
2022/05/20 07:26:02;;;;;;;7.47;3.45;;;21.50;99.90;;;;;;5095692;28;20377;-64
2022/05/20 07:28:30;;;;;;;7.15;3.70;;;22.40;99.40;;;;;;5095896;28;20108;-65
2022/05/20 07:30:55;;;;;;;7.43;3.80;;;22.00;99.50;;;;;;5096296;28;20055;-64
2022/05/20 07:33:21;;;;;;;7.82;4.25;;;21.90;99.90;;;;;;5113862;28;20075;-64
2022/05/20 07:35:47;;;;;;;7.20;3.67;;;21.80;99.90;;;;;;5095997;28;20043;-64
2022/05/20 07:38:13;;;;;;;6.00;2.50;;;21.60;99.90;;;;;;5114149;28;20048;-65
2022/05/20 07:40:40;;;;;;;5.32;2.97;;;22.20;99.60;;;;;;5113623;28;20233;-65
2022/05/20 07:43:05;;;;;;;6.40;3.50;;;22.90;98.70;;;;;;5096118;28;20082;-64
2022/05/20 07:45:31;;;;;;;5.18;3.10;;;23.10;98.30;;;;;;5111541;28;20481;-65
2022/05/20 07:47:56;;;;;;;9.23;3.35;;;23.70;97.70;;;;;;5078214;28;20048;-67
2022/05/20 07:50:22;;;;;;;6.78;3.60;;;23.60;97.70;;;;;;5112901;28;20043;-67
2022/05/20 07:55:40;;;;;;;8.25;3.50;;;22.20;97.80;;;;;;5113374;28;20050;-66
2022/05/20 07:58:11;;;;;;;5.40;2.60;;;22.00;98.40;;;;;;5078718;28;20048;-64
2022/05/20 08:00:37;;;;;;;6.40;2.50;;;21.90;98.60;;;;;;5095058;28;20052;-65
2022/05/20 08:03:03;;;;;;;4.75;2.40;;;22.00;97.90;;;;;;5061794;28;20048;-65
2022/05/20 08:05:30;;;;;;;7.40;2.78;;;22.10;97.90;;;;;;5113008;28;20445;-64
2022/05/20 08:08:02;;;;;;;6.40;3.20;;;22.00;98.20;;;;;;5113052;28;20047;-63
2022/05/20 08:10:31;;;;;;;7.72;3.00;;;21.70;98.60;;;;;;5095203;28;20054;-66
2022/05/20 08:12:57;;;;;;;7.40;3.13;;;21.30;99.20;;;;;;5094855;28;20047;-65
2022/05/20 08:15:24;;;;;;;7.95;3.03;;;21.20;99.40;;;;;;5095035;28;20668;-63
2022/05/20 08:17:50;;;;;;;5.03;2.47;;;21.10;99.50;;;;;;5077483;28;20177;-64
2022/05/20 08:20:22;;;;;;;6.38;2.90;;;20.90;99.90;;;;;;5113038;28;20127;-64
2022/05/20 08:22:53;;;;;;;7.38;2.50;;;21.10;99.60;;;;;;5094762;28;20054;-64
2022/05/20 08:25:20;;;;;;;6.07;2.17;;;21.10;99.20;;;;;;5112988;28;20043;-65
2022/05/20 08:27:46;;;;;;;5.95;2.22;;;21.10;99.10;;;;;;5111955;28;20058;-65
2022/05/20 08:30:19;;;;;;;5.60;2.25;;;21.40;99.20;;;;;;5113132;28;20054;-64
2022/05/20 08:32:45;;;;;;;6.60;2.75;;;22.40;98.00;;;;;;5112629;28;20390;-65
2022/05/20 08:35:11;;;;;;;5.38;2.30;;;22.80;96.90;;;;;;5112745;28;20129;-66
2022/05/20 08:37:39;;;;;;;5.43;2.63;;;23.30;97.70;;;;;;5112217;28;20039;-63
2022/05/20 08:40:07;;;;;;;4.45;2.20;;;23.60;96.40;;;;;;5094700;28;20515;-64
2022/05/20 08:42:33;;;;;;;5.55;2.40;;;23.70;95.60;;;;;;5094168;28;20047;-64
2022/05/20 08:45:02;;;;;;;6.47;2.38;;;23.40;95.40;;;;;;5111984;28;20056;-64
2022/05/20 08:47:32;;;;;;;5.57;2.75;;;23.40;96.00;;;;;;5112122;28;20079;-65
2022/05/20 08:50:00;;;;;;;6.70;2.20;;;23.30;95.50;;;;;;5112614;28;20044;-65
2022/05/20 08:52:27;;;;;;;7.20;2.10;;;23.30;95.90;;;;;;5094316;28;20094;-66
2022/05/20 08:54:53;;;;;;;4.75;1.83;;;23.30;96.30;;;;;;5076809;28;20052;-65
2022/05/20 08:57:27;;;;;;;3.95;1.67;;;23.60;95.70;;;;;;5094489;28;20063;-64
2022/05/20 08:59:53;;;;;;;3.08;1.45;;;23.70;95.20;;;;;;5112520;28;20047;-65
2022/05/20 09:02:20;;;;;;;5.55;1.90;;;24.00;94.40;;;;;;5112436;28;20519;-65
2022/05/20 09:04:46;;;;;;;5.72;1.75;;;24.20;94.30;;;;;;5112039;28;20044;-65
2022/05/20 09:07:14;;;;;;;5.35;2.20;;;24.40;94.40;;;;;;5112230;28;20104;-65
2022/05/20 09:09:51;;;;;;;7.22;2.40;;;24.60;93.70;;;;;;5112031;28;20047;-64
2022/05/20 09:12:38;;;;;;;4.28;1.80;;;24.60;93.90;;;;;;5112276;28;20104;-63
2022/05/20 09:18:31;;;;;;;5.50;2.10;;;24.60;94.00;;;;;;5112268;28;20404;-65
2022/05/20 09:20:57;;;;;;;5.43;2.00;;;24.40;93.30;;;;;;5088502;28;20052;-62
2022/05/20 09:23:24;;;;;;;4.53;2.22;;;24.00;93.50;;;;;;5112230;28;20043;-64
2022/05/20 09:26:05;;;;;;;5.80;2.42;;;23.70;94.00;;;;;;5111758;28;20044;-65
2022/05/20 09:28:38;;;;;;;3.83;1.90;;;23.70;94.10;;;;;;5112194;28;20440;-64
2022/05/20 09:31:21;;;;;;;10.65;2.47;;;23.80;94.30;;;;;;5111851;28;20052;-64
2022/05/20 09:34:05;;;;;;;5.30;2.05;;;23.70;93.60;;;;;;5111931;28;20051;-64
2022/05/20 09:37:05;;;;;;;4.68;2.00;;;23.60;93.50;;;;;;5093637;28;20077;-63
2022/05/20 09:39:38;;;;;;;5.22;2.03;;;23.40;93.60;;;;;;5111860;28;20051;-63
2022/05/20 09:42:20;;;;;;;5.22;2.25;;;23.60;93.90;;;;;;5111598;28;20051;-63
2022/05/20 09:44:52;;;;;;;5.85;2.70;;;23.50;94.20;;;;;;5111364;28;20050;-64
2022/05/20 09:47:31;;;;;;;6.90;2.78;;;23.40;94.10;;;;;;5111745;28;20087;-64
2022/05/20 09:50:03;;;;;;;6.00;2.50;;;23.30;94.70;;;;;;5093461;28;20047;-64
2022/05/20 09:52:32;;;;;;;6.32;2.80;;;23.10;94.60;;;;;;5111478;28;20505;-63
2022/05/20 09:55:12;;;;;;;6.40;3.17;;;22.90;95.30;;;;;;5092849;28;20534;-63
2022/05/20 09:57:47;;;;;;;6.55;3.15;;;23.00;95.00;;;;;;5114885;28;20065;-65
2022/05/20 10:00:26;;;;;;;5.45;2.72;;;23.00;95.30;;;;;;5098314;28;20051;-63
2022/05/20 10:03:14;;;;;;;7.50;2.60;;;22.80;95.10;;;;;;5097332;28;20096;-64
2022/05/20 10:06:01;;;;;;;6.60;3.20;;;22.50;95.40;;;;;;5115725;28;20043;-64
2022/05/20 10:09:01;;;;;;;4.97;2.55;;;22.10;95.40;;;;;;5116156;28;20047;-64
2022/05/20 10:11:45;;;;;;;5.50;2.72;;;22.00;95.90;;;;;;5115944;28;20047;-63
2022/05/20 10:14:22;;;;;;;6.00;2.75;;;21.90;96.00;;;;;;5115953;28;20470;-64
2022/05/20 10:16:57;;;;;;;5.93;2.78;;;21.70;96.50;;;;;;5115745;28;20036;-64
2022/05/20 10:19:43;;;;;;;5.55;2.58;;;21.70;96.60;;;;;;5115982;28;20052;-64
2022/05/20 10:22:19;;;;;;;7.45;2.50;;;21.60;96.30;;;;;;5115934;28;20048;-64
2022/05/20 10:25:05;;;;;;;7.25;2.55;;;21.60;96.40;;;;;;5097209;28;20036;-63
2022/05/20 10:27:40;;;;;;;6.28;2.42;;;21.40;96.20;;;;;;5115787;28;20051;-65
2022/05/20 10:33:13;;;;;;;6.00;2.15;;;21.30;95.80;;;;;;5115633;28;20054;-65
2022/05/20 10:36:11;;;;;;;7.25;2.38;;;21.10;96.10;;;;;;5080608;28;20492;-65
2022/05/20 10:38:43;;;;;;;6.75;2.50;;;21.20;96.40;;;;;;5097620;28;20055;-64
2022/05/20 10:41:19;;;;;;;5.32;2.35;;;21.40;95.70;;;;;;5097014;28;20480;-64
2022/05/20 10:50:02;;;;;;;7.22;2.60;;;21.50;95.50;;;;;;5114999;28;20052;-63
2022/05/20 10:52:42;;;;;;;5.05;2.20;;;21.60;95.90;;;;;;5096900;28;20235;-63
2022/05/20 10:55:35;;;;;;;7.68;2.72;;;21.50;95.60;;;;;;5114457;28;20051;-63
2022/05/20 10:58:16;;;;;;;5.35;2.53;;;21.60;95.40;;;;;;5114170;28;20056;-63
2022/05/20 11:00:50;;;;;;;6.00;2.20;;;21.50;95.70;;;;;;5115543;28;20043;-63
2022/05/20 11:03:53;;;;;;;6.40;2.88;;;21.30;95.60;;;;;;5097082;28;20134;-64
2022/05/20 11:06:35;;;;;;;5.30;2.53;;;21.20;95.80;;;;;;5114954;28;20225;-63
2022/05/20 11:09:03;;;;;;;5.25;2.47;;;21.30;95.80;;;;;;5095935;28;20295;-64
2022/05/20 11:12:00;;;;;;;5.85;2.20;;;21.40;95.70;;;;;;5114980;28;20051;-65
2022/05/20 11:14:57;;;;;;;4.65;2.47;;;21.50;95.60;;;;;;5114309;28;20477;-65
2022/05/20 11:17:54;;;;;;;5.22;2.53;;;21.70;95.10;;;;;;5114685;28;20039;-63
2022/05/20 11:20:37;;;;;;;7.90;2.95;;;21.50;94.50;;;;;;5096790;28;20051;-65
2022/05/20 11:23:02;;;;;;;6.00;2.97;;;21.40;94.70;;;;;;5096213;28;20404;-62
2022/05/20 11:25:57;;;;;;;4.75;2.40;;;21.40;95.20;;;;;;5096285;28;20088;-63
2022/05/20 11:28:58;;;;;;;6.78;2.65;;;21.40;94.80;;;;;;5079779;28;20055;-65
2022/05/20 11:32:00;;;;;;;5.25;2.15;;;21.60;94.10;;;;;;5007144;28;20085;-64
2022/05/20 11:34:50;;;;;;;6.40;2.97;;;21.80;93.50;;;;;;5114302;28;20101;-65
2022/05/20 11:37:34;;;;;;;7.60;2.80;;;22.00;93.00;;;;;;5113971;28;20067;-65
2022/05/20 11:40:10;;;;;;;5.90;3.30;;;21.90;93.90;;;;;;5095785;28;20077;-65
2022/05/20 11:43:01;;;;;;;4.63;3.00;;;21.80;95.10;;;;;;5095719;28;20549;-65
2022/05/20 11:45:45;;;;;;;6.10;3.08;;;21.80;93.80;;;;;;5095778;28;20466;-66
2022/05/20 11:48:29;;;;;;;5.55;3.25;;;21.70;93.20;;;;;;5113194;28;20489;-65
2022/05/20 11:51:01;;;;;;;5.33;2.63;;;21.60;93.60;;;;;;5113603;28;20048;-66
2022/05/20 11:53:45;;;;;;;5.55;3.05;;;21.70;92.70;;;;;;5095494;28;20662;-65
2022/05/20 11:56:28;;;;;;;8.02;3.67;;;21.80;93.20;;;;;;5078600;28;20078;-65
2022/05/20 11:59:09;;;;;;;4.47;2.75;;;22.00;93.80;;;;;;5095380;28;20085;-65
2022/05/20 12:01:37;;;;;;;5.10;2.97;;;22.00;92.90;;;;;;5095907;28;20050;-66
2022/05/20 12:04:08;;;;;;;7.18;3.53;;;21.90;93.00;;;;;;5095302;28;20092;-65
2022/05/20 12:06:41;;;;;;;9.50;3.50;;;21.90;92.70;;;;;;5095976;28;20654;-64
2022/05/20 12:09:32;;;;;;;4.07;2.70;;;21.90;93.30;;;;;;5095572;28;20495;-66
2022/05/20 12:12:20;;;;;;;5.05;3.17;;;21.90;92.20;;;;;;5078664;28;20297;-66
2022/05/20 12:15:03;;;;;;;4.18;2.65;;;21.70;90.90;;;;;;5095486;28;20051;-65
2022/05/20 12:17:46;;;;;;;5.13;2.75;;;21.70;90.40;;;;;;5094638;28;20500;-66
2022/05/20 12:26:23;;;;;;;5.50;3.10;;;21.70;91.80;;;;;;5094162;28;20040;-65
2022/05/20 12:28:49;;;;;;;4.75;3.03;;;21.60;92.10;;;;;;5112882;28;20070;-64
2022/05/20 12:31:31;;;;;;;5.45;3.40;;;21.60;91.50;;;;;;5094490;28;20461;-66
2022/05/20 12:34:20;;;;;;;4.90;3.78;;;21.70;91.80;;;;;;5094838;28;20089;-65
2022/05/20 12:36:46;;;;;;;5.05;3.65;;;21.60;91.70;;;;;;5111229;28;20052;-64
2022/05/20 12:39:15;;;;;;;6.28;4.10;;;21.70;92.20;;;;;;5113017;28;20460;-64
2022/05/20 12:41:49;;;;;;;7.13;4.75;;;21.80;92.90;;;;;;5113194;28;20093;-64
2022/05/20 12:44:21;;;;;;;6.07;4.47;;;22.00;93.10;;;;;;5077948;28;20051;-65
2022/05/20 12:47:17;;;;;;;6.45;4.00;;;22.00;93.20;;;;;;5094440;28;20043;-65
2022/05/20 12:49:59;;;;;;;5.97;3.83;;;22.20;92.60;;;;;;5095140;28;20086;-64
2022/05/20 12:52:28;;;;;;;7.75;4.00;;;22.20;91.40;;;;;;5112708;28;20139;-64
2022/05/20 12:54:58;;;;;;;6.25;4.20;;;22.30;92.20;;;;;;5112831;28;20054;-65
2022/05/20 12:57:34;;;;;;;7.15;3.85;;;22.30;92.20;;;;;;5094015;28;20052;-65
2022/05/20 13:00:12;;;;;;;8.50;4.22;;;22.20;92.30;;;;;;5094572;28;20055;-65
2022/05/20 13:02:51;;;;;;;8.60;3.75;;;22.10;92.10;;;;;;5112249;28;20135;-64
2022/05/20 13:05:31;;;;;;;5.85;4.20;;;22.10;92.50;;;;;;5112257;28;20122;-64
2022/05/20 13:07:57;;;;;;;6.65;4.55;;;22.10;92.60;;;;;;5112536;28;20035;-64
2022/05/20 13:10:36;;;;;;;8.10;4.28;;;22.00;91.80;;;;;;5112120;28;20043;-66
2022/05/20 13:13:08;;;;;;;7.22;4.63;;;22.00;92.20;;;;;;5111994;28;20044;-65
2022/05/20 13:15:42;;;;;;;7.07;4.05;;;21.80;92.60;;;;;;5112242;28;20108;-64
2022/05/20 13:18:17;;;;;;;7.50;4.68;;;21.70;93.30;;;;;;5093828;28;20079;-67
2022/05/20 13:20:43;;;;;;;7.22;4.38;;;21.70;93.30;;;;;;5094177;28;20373;-63
2022/05/20 13:23:16;;;;;;;6.65;5.00;;;21.70;93.40;;;;;;5076726;28;20134;-66
2022/05/20 13:25:45;;;;;;;8.82;4.22;;;21.70;93.20;;;;;;5093859;28;20043;-64
2022/05/20 13:28:11;;;;;;;7.75;4.50;;;21.60;93.20;;;;;;5111532;28;20108;-65
2022/05/20 13:30:36;;;;;;;6.22;3.90;;;21.60;93.00;;;;;;5076749;28;20055;-65
2022/05/20 13:33:10;;;;;;;8.00;4.65;;;21.50;93.00;;;;;;5111697;28;20541;-65
2022/05/20 13:35:45;;;;;;;6.35;4.22;;;21.40;92.80;;;;;;5111914;28;20115;-65
2022/05/20 13:38:11;;;;;;;4.10;3.05;;;21.30;92.80;;;;;;5093594;28;20040;-65
2022/05/20 13:40:44;;;;;;;5.97;3.70;;;21.20;92.80;;;;;;5076706;28;20094;-65
2022/05/20 13:43:12;;;;;;;5.72;3.30;;;21.20;92.20;;;;;;5111763;28;20047;-68
2022/05/20 13:51:42;;;;;;;5.00;3.55;;;21.00;92.80;;;;;;5093708;28;20377;-66
2022/05/20 13:54:12;;;;;;;7.00;3.50;;;21.00;93.10;;;;;;5111392;28;20439;-64